Time;durP1;ratioP1;P1;durP2;ratioP2;P2;SDS_P1;SDS_P2;PMS_P1;PMS_P2;Temp;Humidity;BMP_temperature;BMP_pressure;BME280_temperature;BME280_humidity;BME280_pressure;Samples;Min_cycle;Max_cycle;Signal;HPM_P1;HPM_P2
2022/12/29 00:01:50;;;;;;;9.68;7.45;;;9.90;99.90;;;;;;4994183;28;20044;-38
2022/12/29 00:04:15;;;;;;;6.53;5.82;;;10.00;99.90;;;;;;4994189;28;20402;-38
2022/12/29 00:06:42;;;;;;;7.63;6.43;;;10.00;99.90;;;;;;5011429;28;20045;-38
2022/12/29 00:09:10;;;;;;;6.95;6.28;;;10.00;99.90;;;;;;4994249;28;20053;-38
2022/12/29 00:11:35;;;;;;;8.75;6.63;;;10.00;99.90;;;;;;4993628;28;20049;-39
2022/12/29 00:16:45;;;;;;;7.95;6.97;;;10.10;99.90;;;;;;5008080;28;20475;-39
2022/12/29 00:36:08;;;;;;;7.30;6.70;;;10.10;99.90;;;;;;5017763;28;20056;-39
2022/12/29 00:44:09;;;;;;;7.55;6.60;;;10.10;99.90;;;;;;5014601;28;20103;-39
2022/12/29 00:46:40;;;;;;;7.15;6.45;;;10.10;99.90;;;;;;5005961;28;20368;-38
2022/12/29 00:51:55;;;;;;;7.70;6.22;;;10.10;99.90;;;;;;5004312;28;20145;-39
2022/12/29 00:54:21;;;;;;;7.40;5.80;;;10.10;99.90;;;;;;4993206;28;20117;-38
2022/12/29 00:56:48;;;;;;;6.75;6.07;;;10.10;99.90;;;;;;4993876;28;20080;-38
2022/12/29 00:59:14;;;;;;;6.35;5.75;;;10.10;99.90;;;;;;4981255;28;20042;-38
2022/12/29 01:01:40;;;;;;;5.05;4.55;;;10.10;99.90;;;;;;4997632;28;20127;-39
2022/12/29 01:04:07;;;;;;;5.55;5.05;;;10.10;99.90;;;;;;5020036;28;20038;-38
2022/12/29 01:06:33;;;;;;;5.97;5.38;;;10.20;99.90;;;;;;4997149;28;20041;-38
2022/12/29 01:11:44;;;;;;;5.60;5.10;;;10.30;99.90;;;;;;5013238;28;20081;-39
2022/12/29 01:14:10;;;;;;;6.50;5.60;;;10.30;99.90;;;;;;4986238;28;20074;-39
2022/12/29 01:16:38;;;;;;;6.82;5.07;;;10.30;99.90;;;;;;4996655;28;20034;-39
2022/12/29 01:19:04;;;;;;;5.82;5.30;;;10.30;99.90;;;;;;5002199;28;20042;-39
2022/12/29 01:21:30;;;;;;;6.68;5.43;;;10.40;99.90;;;;;;5003446;28;20505;-38
2022/12/29 01:23:56;;;;;;;5.10;4.60;;;10.40;99.90;;;;;;4996647;28;20046;-39
2022/12/29 01:26:22;;;;;;;5.55;4.72;;;10.40;99.90;;;;;;5002566;28;20480;-38
2022/12/29 01:28:48;;;;;;;5.18;4.28;;;10.40;99.90;;;;;;4996610;28;20038;-38
2022/12/29 01:31:15;;;;;;;5.18;4.60;;;10.40;99.90;;;;;;5001941;28;20543;-38
2022/12/29 01:33:41;;;;;;;4.75;4.35;;;10.40;99.90;;;;;;4999028;28;20037;-38
2022/12/29 01:36:09;;;;;;;5.13;4.63;;;10.40;99.90;;;;;;5008637;28;20044;-39
2022/12/29 01:38:39;;;;;;;4.97;4.13;;;10.50;99.90;;;;;;5013873;28;20038;-42
2022/12/29 01:41:06;;;;;;;5.15;4.65;;;10.50;99.90;;;;;;4995239;28;20049;-42
2022/12/29 01:43:50;;;;;;;4.90;4.07;;;10.50;99.90;;;;;;5004974;28;20088;-42
2022/12/29 01:46:33;;;;;;;5.00;4.25;;;10.50;99.90;;;;;;5006626;28;20041;-42
2022/12/29 01:49:08;;;;;;;5.70;4.60;;;10.50;99.90;;;;;;4975269;28;20050;-42
2022/12/29 01:51:48;;;;;;;4.72;4.07;;;10.50;99.90;;;;;;5005163;28;20047;-42
2022/12/29 01:54:20;;;;;;;4.32;4.03;;;10.50;99.90;;;;;;5011489;28;20069;-41
2022/12/29 01:56:46;;;;;;;5.28;4.00;;;10.60;99.90;;;;;;4991045;28;20995;-42
2022/12/29 01:59:17;;;;;;;4.68;4.28;;;10.60;99.90;;;;;;5012418;28;20376;-41
2022/12/29 02:01:44;;;;;;;4.60;4.20;;;10.50;99.90;;;;;;5007448;28;20092;-42
2022/12/29 02:04:12;;;;;;;4.00;3.70;;;10.60;99.90;;;;;;4997874;28;20041;-42
2022/12/29 02:06:45;;;;;;;3.92;3.58;;;10.60;99.90;;;;;;5009982;28;20069;-39
2022/12/29 02:09:10;;;;;;;4.00;3.60;;;10.60;99.90;;;;;;5002603;28;20042;-37
2022/12/29 02:11:38;;;;;;;3.80;3.50;;;10.70;99.90;;;;;;4999401;28;20042;-37
2022/12/29 02:14:11;;;;;;;5.15;4.25;;;10.60;99.90;;;;;;5007687;28;20037;-37
2022/12/29 02:17:14;;;;;;;4.32;3.50;;;10.60;99.90;;;;;;5013412;28;20049;-37
2022/12/29 02:20:11;;;;;;;3.95;3.65;;;10.60;99.90;;;;;;5004327;28;20046;-37
2022/12/29 02:22:43;;;;;;;4.68;3.63;;;10.60;99.90;;;;;;5006282;28;20049;-37
2022/12/29 02:25:09;;;;;;;4.18;3.80;;;10.60;99.90;;;;;;4999287;28;20053;-37
2022/12/29 02:27:54;;;;;;;3.97;3.67;;;10.60;99.90;;;;;;5009189;28;20475;-37
2022/12/29 02:30:58;;;;;;;3.42;3.10;;;10.60;99.90;;;;;;4999496;28;20526;-37
2022/12/29 02:33:37;;;;;;;4.13;3.83;;;10.60;99.90;;;;;;4988067;28;20054;-36
2022/12/29 02:36:23;;;;;;;4.93;3.65;;;10.60;99.90;;;;;;5003838;28;20034;-37
2022/12/29 02:38:59;;;;;;;4.25;3.60;;;10.60;99.90;;;;;;5011839;28;20440;-37
2022/12/29 02:41:27;;;;;;;5.13;3.20;;;10.50;99.90;;;;;;4996581;28;20180;-37
2022/12/29 02:44:16;;;;;;;4.28;3.88;;;10.50;99.90;;;;;;5000913;28;20129;-37
2022/12/29 02:46:48;;;;;;;4.13;3.70;;;10.40;99.90;;;;;;4996203;28;20495;-37
2022/12/29 02:49:44;;;;;;;5.68;4.15;;;10.40;99.90;;;;;;4995055;28;20041;-37
2022/12/29 02:52:17;;;;;;;5.22;4.00;;;10.30;99.90;;;;;;4989006;28;20136;-37
2022/12/29 02:54:43;;;;;;;;;;;10.30;99.90;;;;;;4996543;28;20117;-37
2022/12/29 02:57:21;;;;;;;5.78;3.88;;;10.30;99.90;;;;;;4995769;28;20470;-37
2022/12/29 02:59:58;;;;;;;4.93;3.97;;;10.30;99.90;;;;;;5008535;28;20483;-37
2022/12/29 03:02:45;;;;;;;3.80;3.50;;;10.20;99.90;;;;;;4998988;28;20069;-37
2022/12/29 03:05:13;;;;;;;4.32;3.53;;;10.20;99.90;;;;;;4978689;28;20095;-36
2022/12/29 03:07:54;;;;;;;4.40;3.70;;;10.20;99.90;;;;;;4995660;28;20042;-37
2022/12/29 03:10:39;;;;;;;4.50;3.60;;;10.20;99.90;;;;;;5013592;28;20083;-37
2022/12/29 03:16:23;;;;;;;3.53;3.20;;;10.10;99.90;;;;;;5023092;28;20052;-36
2022/12/29 03:19:21;;;;;;;3.72;3.28;;;10.10;99.90;;;;;;4985023;28;20053;-36
2022/12/29 03:24:49;;;;;;;4.00;3.60;;;10.10;99.90;;;;;;5019449;28;20049;-37
2022/12/29 03:27:24;;;;;;;3.65;3.03;;;10.00;99.90;;;;;;5003463;28;20399;-37
2022/12/29 03:29:54;;;;;;;5.95;2.90;;;10.10;99.90;;;;;;4994557;28;20049;-37
2022/12/29 03:32:23;;;;;;;4.30;2.70;;;10.00;99.90;;;;;;5005252;28;20580;-37
2022/12/29 03:34:50;;;;;;;4.55;3.03;;;10.00;99.90;;;;;;4998810;28;20060;-37
2022/12/29 03:37:20;;;;;;;4.22;2.60;;;10.10;99.90;;;;;;5008796;28;20134;-36
2022/12/29 03:39:46;;;;;;;3.70;3.33;;;10.10;99.90;;;;;;4998960;28;20487;-37
2022/12/29 03:42:19;;;;;;;4.57;3.03;;;10.10;99.90;;;;;;4996135;28;20172;-37
2022/12/29 03:44:46;;;;;;;4.40;2.85;;;10.10;99.90;;;;;;4993050;28;20121;-37
2022/12/29 03:47:13;;;;;;;3.70;2.30;;;10.10;99.90;;;;;;5012568;28;20041;-37
2022/12/29 03:49:40;;;;;;;2.38;2.17;;;10.20;99.90;;;;;;5014026;28;20136;-36
2022/12/29 03:52:06;;;;;;;3.97;2.08;;;10.20;99.90;;;;;;4999847;28;20041;-36
2022/12/29 03:54:32;;;;;;;4.40;2.05;;;10.20;99.90;;;;;;4994999;28;20044;-37
2022/12/29 03:56:58;;;;;;;5.13;2.05;;;10.30;99.90;;;;;;4994945;28;20048;-37
2022/12/29 03:59:24;;;;;;;3.03;1.88;;;10.30;99.90;;;;;;4994687;28;20034;-36
2022/12/29 04:01:50;;;;;;;2.00;1.80;;;10.30;99.90;;;;;;4978208;28;20467;-38
2022/12/29 04:04:16;;;;;;;3.50;1.95;;;10.30;99.90;;;;;;4994847;28;20038;-36
2022/12/29 04:06:41;;;;;;;7.72;3.97;;;10.40;99.90;;;;;;5018337;28;20040;-37
2022/12/29 04:09:09;;;;;;;9.02;6.50;;;10.40;99.90;;;;;;4994367;28;20084;-37
2022/12/29 04:11:34;;;;;;;6.32;3.20;;;10.50;99.90;;;;;;4994153;28;20491;-36
2022/12/29 04:14:00;;;;;;;28.90;16.45;;;10.40;99.90;;;;;;4995972;28;20100;-37
2022/12/29 04:16:26;;;;;;;5.10;3.40;;;10.50;99.90;;;;;;5010661;28;20038;-36
2022/12/29 04:18:52;;;;;;;3.83;2.13;;;10.40;99.90;;;;;;4999998;28;20038;-37
2022/12/29 04:21:18;;;;;;;14.75;9.45;;;10.40;99.90;;;;;;5005740;28;20037;-37
2022/12/29 04:23:43;;;;;;;3.65;2.42;;;10.40;99.90;;;;;;5008208;28;20128;-37
2022/12/29 04:26:10;;;;;;;3.60;2.60;;;10.40;99.90;;;;;;5010672;28;20041;-37
2022/12/29 04:28:36;;;;;;;3.10;1.90;;;10.40;99.90;;;;;;5008568;28;20099;-36
2022/12/29 04:31:03;;;;;;;2.97;2.30;;;10.40;99.90;;;;;;5005814;28;20042;-37
2022/12/29 04:33:30;;;;;;;3.08;2.45;;;10.40;99.90;;;;;;4995501;28;20077;-37
2022/12/29 04:35:59;;;;;;;5.43;4.93;;;10.30;99.90;;;;;;4978115;28;20049;-37
2022/12/29 04:38:25;;;;;;;3.55;3.22;;;10.30;99.90;;;;;;4994420;28;20475;-37
2022/12/29 04:40:51;;;;;;;4.97;3.25;;;10.30;99.90;;;;;;4995293;28;20077;-37
2022/12/29 04:43:19;;;;;;;6.45;4.63;;;10.30;99.90;;;;;;5017465;28;20037;-37
2022/12/29 04:45:48;;;;;;;2.97;2.38;;;10.30;99.90;;;;;;4993044;28;20054;-37
2022/12/29 04:48:14;;;;;;;3.30;1.95;;;10.30;99.90;;;;;;4996933;28;20040;-37
2022/12/29 04:50:41;;;;;;;4.43;1.70;;;10.30;99.90;;;;;;5019285;28;20475;-37
2022/12/29 04:53:07;;;;;;;5.85;1.73;;;10.30;99.90;;;;;;5014471;28;20092;-37
2022/12/29 04:55:33;;;;;;;3.50;1.90;;;10.20;99.90;;;;;;5003382;28;20108;-37
2022/12/29 04:57:59;;;;;;;4.65;1.45;;;10.20;99.90;;;;;;4994860;28;20552;-37
2022/12/29 05:00:25;;;;;;;4.13;1.70;;;10.20;99.90;;;;;;5011452;28;20636;-37
2022/12/29 05:02:50;;;;;;;3.60;1.58;;;10.10;99.90;;;;;;4997726;28;20038;-37
2022/12/29 05:05:17;;;;;;;3.22;1.70;;;10.20;99.90;;;;;;5003339;28;20038;-37
2022/12/29 05:07:43;;;;;;;2.72;1.90;;;10.20;99.90;;;;;;5005667;28;20092;-37
2022/12/29 05:10:08;;;;;;;3.20;2.03;;;10.20;99.90;;;;;;5009974;28;20081;-37
2022/12/29 05:12:41;;;;;;;3.70;1.95;;;10.20;99.90;;;;;;4994376;28;20049;-45
2022/12/29 05:15:08;;;;;;;3.63;2.17;;;10.20;99.90;;;;;;4994893;28;20533;-42
2022/12/29 05:17:33;;;;;;;4.68;1.80;;;10.30;99.90;;;;;;4998214;28;20033;-42
2022/12/29 05:19:59;;;;;;;4.35;2.50;;;10.30;99.90;;;;;;4993085;28;20038;-43
2022/12/29 05:22:25;;;;;;;4.55;2.33;;;10.30;99.90;;;;;;4994745;28;20042;-41
2022/12/29 05:24:51;;;;;;;8.55;2.92;;;10.30;99.90;;;;;;4993719;28;20550;-42
2022/12/29 05:27:17;;;;;;;4.00;2.30;;;10.30;99.90;;;;;;4994226;28;20112;-42
2022/12/29 05:29:42;;;;;;;3.90;2.58;;;10.30;99.90;;;;;;4977464;28;20046;-42
2022/12/29 05:32:08;;;;;;;3.38;2.20;;;10.30;99.90;;;;;;5011761;28;20045;-42
2022/12/29 05:34:34;;;;;;;4.93;2.10;;;10.20;99.90;;;;;;5011728;28;20033;-41
2022/12/29 05:37:00;;;;;;;5.20;2.13;;;10.20;99.90;;;;;;4995225;28;20080;-42
2022/12/29 05:39:26;;;;;;;5.03;1.92;;;10.20;99.90;;;;;;4998811;28;20033;-38
2022/12/29 05:41:52;;;;;;;3.28;1.90;;;10.20;99.90;;;;;;4996763;28;20458;-38
2022/12/29 05:44:17;;;;;;;4.50;1.98;;;10.20;99.90;;;;;;5015667;28;20042;-38
2022/12/29 05:46:43;;;;;;;3.35;1.98;;;10.20;99.90;;;;;;4990750;28;20038;-38
2022/12/29 05:49:09;;;;;;;3.13;2.15;;;10.20;99.90;;;;;;4998933;28;20451;-38
2022/12/29 05:51:35;;;;;;;4.80;2.25;;;10.10;99.90;;;;;;4996638;28;20499;-38
2022/12/29 05:54:00;;;;;;;2.63;2.42;;;10.10;99.90;;;;;;4998991;28;20450;-38
2022/12/29 05:56:26;;;;;;;3.40;1.65;;;10.10;99.90;;;;;;5004254;28;20029;-38
2022/12/29 05:58:52;;;;;;;2.92;1.60;;;10.10;99.90;;;;;;4998762;28;20041;-38
2022/12/29 06:01:17;;;;;;;5.90;1.70;;;10.10;99.90;;;;;;4999872;28;20045;-38
2022/12/29 06:03:43;;;;;;;5.97;1.70;;;10.10;99.90;;;;;;5002327;28;20474;-38
2022/12/29 06:06:09;;;;;;;5.93;1.60;;;10.10;99.90;;;;;;4999178;28;20046;-38
2022/12/29 06:08:34;;;;;;;3.10;1.80;;;10.10;99.90;;;;;;4998077;28;20034;-39
2022/12/29 06:11:00;;;;;;;2.85;2.13;;;10.10;99.90;;;;;;4998055;28;20389;-39
2022/12/29 06:13:27;;;;;;;3.75;1.60;;;10.00;99.90;;;;;;5014743;28;20102;-38
2022/12/29 06:15:55;;;;;;;5.90;1.58;;;10.00;99.90;;;;;;4997959;28;20069;-39
2022/12/29 06:18:21;;;;;;;5.80;1.80;;;10.00;99.90;;;;;;5016892;28;20045;-39
2022/12/29 06:20:47;;;;;;;5.18;1.88;;;10.00;99.90;;;;;;5012305;28;20037;-41
2022/12/29 06:23:13;;;;;;;4.88;1.60;;;10.00;99.90;;;;;;5008812;28;20175;-41
2022/12/29 06:25:39;;;;;;;3.72;1.38;;;10.00;99.90;;;;;;5013122;28;20124;-42
2022/12/29 06:28:05;;;;;;;4.88;1.55;;;9.90;99.90;;;;;;4997539;28;20495;-41
2022/12/29 06:30:31;;;;;;;5.63;1.75;;;9.90;99.90;;;;;;4997698;28;20111;-41
2022/12/29 06:32:58;;;;;;;3.70;1.70;;;9.90;99.90;;;;;;4997581;28;20053;-41
2022/12/29 06:35:24;;;;;;;3.95;1.40;;;9.90;99.90;;;;;;5007186;28;20048;-42
2022/12/29 06:37:50;;;;;;;6.97;1.92;;;9.80;99.90;;;;;;5006197;28;20030;-42
2022/12/29 06:40:16;;;;;;;6.15;1.85;;;9.90;99.90;;;;;;5021691;28;20038;-41
2022/12/29 06:42:42;;;;;;;3.83;1.52;;;9.80;99.90;;;;;;5008608;28;20038;-42
2022/12/29 06:45:08;;;;;;;6.15;2.20;;;9.90;99.90;;;;;;4995684;28;20403;-45
2022/12/29 06:47:35;;;;;;;8.57;2.47;;;9.90;99.90;;;;;;5003020;28;20100;-42
2022/12/29 06:50:01;;;;;;;3.70;2.20;;;9.90;99.90;;;;;;5002609;28;20045;-42
2022/12/29 06:52:28;;;;;;;5.15;1.90;;;9.90;99.90;;;;;;5005392;28;20103;-41
2022/12/29 06:54:54;;;;;;;5.97;2.10;;;9.90;99.90;;;;;;4995948;28;20091;-41
2022/12/29 06:57:21;;;;;;;6.65;2.00;;;9.80;99.90;;;;;;5002406;28;20090;-45
2022/12/29 06:59:47;;;;;;;5.80;1.80;;;9.80;99.90;;;;;;4995819;28;20038;-41
2022/12/29 07:02:19;;;;;;;6.72;1.60;;;9.80;99.90;;;;;;5003080;28;20491;-41
2022/12/29 07:04:45;;;;;;;5.90;1.83;;;9.80;99.90;;;;;;5002082;28;20029;-41
2022/12/29 07:07:10;;;;;;;7.50;1.73;;;9.70;99.90;;;;;;5013606;28;20057;-41
2022/12/29 07:09:36;;;;;;;9.40;1.88;;;9.80;99.90;;;;;;4996011;28;20042;-41
2022/12/29 07:12:02;;;;;;;7.65;1.65;;;9.80;99.90;;;;;;4996169;28;20061;-41
2022/12/29 07:14:27;;;;;;;11.30;2.08;;;9.80;99.90;;;;;;4995855;28;20057;-41
2022/12/29 07:16:53;;;;;;;10.15;1.80;;;9.70;99.90;;;;;;4997649;28;20029;-41
2022/12/29 07:19:20;;;;;;;9.25;2.00;;;9.70;99.90;;;;;;5004424;28;20030;-37
2022/12/29 07:21:46;;;;;;;6.68;1.90;;;9.70;99.90;;;;;;5016133;28;20403;-37
2022/12/29 07:24:11;;;;;;;7.32;2.20;;;9.70;99.90;;;;;;5015932;28;20042;-36
2022/12/29 07:26:37;;;;;;;8.20;2.05;;;9.60;99.90;;;;;;5015810;28;20566;-37
2022/12/29 07:29:04;;;;;;;10.68;2.45;;;9.50;99.90;;;;;;5016145;28;20033;-37
2022/12/29 07:31:30;;;;;;;9.13;2.03;;;9.60;99.90;;;;;;4997482;28;20096;-41
2022/12/29 07:33:56;;;;;;;9.60;2.30;;;9.60;99.90;;;;;;4995099;28;20399;-41
2022/12/29 07:36:22;;;;;;;11.90;2.35;;;9.60;99.90;;;;;;4996540;28;20035;-41
2022/12/29 07:38:48;;;;;;;13.43;5.05;;;9.60;99.90;;;;;;4994338;28;20080;-41
2022/12/29 07:41:13;;;;;;;9.45;3.03;;;9.60;99.90;;;;;;4995997;28;20045;-42
2022/12/29 07:43:39;;;;;;;7.00;2.03;;;9.60;99.90;;;;;;4994865;28;20037;-43
2022/12/29 07:46:05;;;;;;;9.50;2.00;;;9.60;99.90;;;;;;4994511;28;20113;-43
2022/12/29 07:48:33;;;;;;;7.45;1.75;;;9.60;99.90;;;;;;4994350;28;20052;-41
2022/12/29 07:51:00;;;;;;;7.60;1.80;;;9.70;99.90;;;;;;4987574;28;20038;-42
2022/12/29 07:53:27;;;;;;;6.93;2.05;;;9.70;99.90;;;;;;5011094;28;20042;-43
2022/12/29 07:55:52;;;;;;;7.40;1.80;;;9.70;99.90;;;;;;4994645;28;20049;-41
2022/12/29 07:58:18;;;;;;;7.68;2.28;;;9.80;99.90;;;;;;4994672;28;20071;-41
2022/12/29 08:00:44;;;;;;;6.93;1.80;;;9.70;99.90;;;;;;4994339;28;20033;-42
2022/12/29 08:03:10;;;;;;;6.93;2.15;;;9.70;99.90;;;;;;4977884;28;20034;-41
2022/12/29 08:05:36;;;;;;;11.10;2.13;;;9.60;99.90;;;;;;4979469;28;20033;-41
2022/12/29 08:08:01;;;;;;;4.45;1.58;;;9.60;99.90;;;;;;4995084;28;20030;-41
2022/12/29 08:10:27;;;;;;;7.32;2.53;;;9.60;99.90;;;;;;5003929;28;20029;-41
2022/12/29 08:12:53;;;;;;;6.40;2.00;;;9.60;99.90;;;;;;5002227;28;20116;-42
2022/12/29 08:15:19;;;;;;;5.75;1.77;;;9.60;99.90;;;;;;4996159;28;20052;-41
2022/12/29 08:17:45;;;;;;;8.00;2.08;;;9.60;99.90;;;;;;5016787;28;20042;-41
2022/12/29 08:20:11;;;;;;;8.50;2.25;;;9.60;99.90;;;;;;4995531;28;20042;-43
2022/12/29 08:22:36;;;;;;;10.98;2.38;;;9.60;99.90;;;;;;5000031;28;20134;-42
2022/12/29 08:25:02;;;;;;;11.75;2.17;;;9.60;99.90;;;;;;4995732;28;20505;-41
2022/12/29 08:27:28;;;;;;;10.30;2.53;;;9.60;99.90;;;;;;4993384;28;20061;-41
2022/12/29 08:29:54;;;;;;;7.22;1.75;;;9.60;99.90;;;;;;4994404;28;20033;-41
2022/12/29 08:32:20;;;;;;;12.65;2.70;;;9.60;99.90;;;;;;4999781;28;20049;-46
2022/12/29 08:34:46;;;;;;;8.45;2.45;;;9.60;99.90;;;;;;4996573;28;20117;-41
2022/12/29 08:37:11;;;;;;;7.10;1.92;;;9.60;99.90;;;;;;4998807;28;20038;-41
2022/12/29 08:39:37;;;;;;;8.90;1.92;;;9.60;99.90;;;;;;5002659;28;20033;-41
2022/12/29 08:42:03;;;;;;;9.52;2.10;;;9.60;99.90;;;;;;5002459;28;20045;-43
2022/12/29 08:44:29;;;;;;;10.10;1.98;;;9.60;99.90;;;;;;5021642;28;20049;-41
2022/12/29 08:46:54;;;;;;;9.55;1.75;;;9.70;99.90;;;;;;4997278;28;20037;-38
2022/12/29 08:49:20;;;;;;;10.25;2.30;;;9.70;99.90;;;;;;5006620;28;20071;-38
2022/12/29 08:51:46;;;;;;;6.28;1.55;;;9.70;99.90;;;;;;4995707;28;20096;-38
2022/12/29 08:54:12;;;;;;;5.75;1.70;;;9.80;99.90;;;;;;4999332;28;20117;-38
2022/12/29 08:56:38;;;;;;;4.10;1.50;;;9.80;99.90;;;;;;5001164;28;20038;-38
2022/12/29 08:59:03;;;;;;;5.28;1.83;;;9.70;99.90;;;;;;5011735;28;20034;-38
2022/12/29 09:01:30;;;;;;;7.03;1.75;;;9.70;99.90;;;;;;5001017;28;20081;-38
2022/12/29 09:03:55;;;;;;;7.35;1.77;;;9.70;99.90;;;;;;4997239;28;20070;-38
2022/12/29 09:06:21;;;;;;;6.22;1.75;;;9.60;99.90;;;;;;4999865;28;20070;-38
2022/12/29 09:08:47;;;;;;;4.07;1.35;;;9.60;99.90;;;;;;4990902;28;20387;-38
2022/12/29 09:11:19;;;;;;;6.28;1.95;;;9.60;99.90;;;;;;4991316;28;20122;-39
2022/12/29 09:13:48;;;;;;;8.48;2.40;;;9.60;99.90;;;;;;4993138;28;20038;-36
2022/12/29 09:16:15;;;;;;;6.22;2.38;;;9.60;99.90;;;;;;4995017;28;20112;-37
2022/12/29 09:18:41;;;;;;;6.10;1.90;;;9.60;99.90;;;;;;4980966;28;20410;-36
2022/12/29 09:21:09;;;;;;;4.18;1.67;;;9.60;99.90;;;;;;5016150;28;20042;-36
2022/12/29 09:23:39;;;;;;;10.80;2.40;;;9.50;99.90;;;;;;4998477;28;20040;-36
2022/12/29 09:26:05;;;;;;;8.23;2.50;;;9.50;99.90;;;;;;4998259;28;20117;-36
2022/12/29 09:28:31;;;;;;;7.45;2.45;;;9.40;99.90;;;;;;4998798;28;20442;-36
2022/12/29 09:30:57;;;;;;;9.35;2.60;;;9.30;99.90;;;;;;4998603;28;20034;-36
2022/12/29 09:33:24;;;;;;;7.43;2.55;;;9.40;99.90;;;;;;4998668;28;20507;-37
2022/12/29 09:35:58;;;;;;;8.50;2.30;;;9.40;99.90;;;;;;4998785;28;20522;-36
2022/12/29 10:01:05;;;;;;;6.03;1.92;;;9.40;99.90;;;;;;5018288;28;20041;-36
2022/12/29 10:11:38;;;;;;;13.98;6.57;;;9.60;99.90;;;;;;5017991;28;20119;-36
2022/12/29 10:14:44;;;;;;;7.35;3.00;;;9.60;99.90;;;;;;5013911;28;20049;-36
2022/12/29 10:17:27;;;;;;;9.38;2.83;;;9.70;99.90;;;;;;5000331;28;20037;-36
2022/12/29 10:20:22;;;;;;;8.02;3.05;;;9.70;99.90;;;;;;5017954;28;20034;-36
2022/12/29 10:23:03;;;;;;;11.93;3.17;;;9.70;99.90;;;;;;5004425;28;20474;-37
2022/12/29 10:25:32;;;;;;;14.63;5.28;;;9.70;99.90;;;;;;4999930;28;20037;-38
2022/12/29 10:28:03;;;;;;;18.45;7.13;;;9.70;99.90;;;;;;5014137;28;20041;-38
2022/12/29 10:30:29;;;;;;;20.17;9.15;;;9.70;99.90;;;;;;4999720;28;20038;-38
2022/12/29 10:33:03;;;;;;;17.10;8.65;;;9.70;99.90;;;;;;5000076;28;20034;-38
2022/12/29 10:35:37;;;;;;;;;;;9.70;99.90;;;;;;5000467;28;20117;-38
2022/12/29 10:38:21;;;;;;;11.00;3.17;;;9.60;99.90;;;;;;4995286;28;20334;-38
2022/12/29 10:40:56;;;;;;;10.23;2.92;;;9.60;99.90;;;;;;5010446;28;20034;-38
2022/12/29 10:43:26;;;;;;;10.00;2.28;;;9.60;99.90;;;;;;5018774;28;20037;-38
2022/12/29 10:46:00;;;;;;;5.97;2.83;;;9.60;99.90;;;;;;5012535;28;20041;-38
2022/12/29 10:48:31;;;;;;;6.95;2.35;;;9.50;99.90;;;;;;5013961;28;20034;-38
2022/12/29 10:51:00;;;;;;;9.05;2.53;;;9.50;99.90;;;;;;4999309;28;20037;-38
2022/12/29 10:53:52;;;;;;;9.43;2.40;;;9.50;99.90;;;;;;4997932;28;20077;-38
2022/12/29 10:56:44;;;;;;;8.90;2.47;;;9.50;99.90;;;;;;4999452;28;20061;-39
2022/12/29 10:59:20;;;;;;;8.23;2.75;;;9.50;99.90;;;;;;5014699;28;20418;-39
2022/12/29 11:02:07;;;;;;;9.13;2.58;;;9.50;99.90;;;;;;5018191;28;20117;-38
2022/12/29 11:04:54;;;;;;;9.35;2.88;;;9.50;99.90;;;;;;4993060;28;20050;-39
2022/12/29 11:07:21;;;;;;;8.82;2.63;;;9.50;99.90;;;;;;5007724;28;20411;-38
2022/12/29 11:09:47;;;;;;;6.57;1.95;;;9.50;99.90;;;;;;5014406;28;20038;-38
2022/12/29 11:12:21;;;;;;;6.22;2.30;;;9.50;99.90;;;;;;5007150;28;20393;-38
2022/12/29 11:14:59;;;;;;;6.57;2.53;;;9.50;99.90;;;;;;5018020;28;20033;-39
2022/12/29 11:17:26;;;;;;;6.93;2.58;;;9.50;99.90;;;;;;5014422;28;20496;-39
2022/12/29 11:19:52;;;;;;;7.68;2.75;;;9.50;99.90;;;;;;4997616;28;20049;-38
2022/12/29 11:22:21;;;;;;;6.53;2.42;;;9.50;99.90;;;;;;5017748;28;20050;-38
2022/12/29 11:24:52;;;;;;;7.53;2.28;;;9.40;99.90;;;;;;4991349;28;20394;-38
2022/12/29 11:27:26;;;;;;;6.07;2.65;;;9.40;99.90;;;;;;5015918;28;20046;-38
2022/12/29 11:29:52;;;;;;;;;;;9.40;99.90;;;;;;4992074;28;20046;-38
2022/12/29 11:32:23;;;;;;;6.03;2.78;;;9.40;99.90;;;;;;5013805;28;19921;-38
2022/12/29 11:34:49;;;;;;;5.72;2.35;;;9.40;99.90;;;;;;5008096;28;20056;-38
2022/12/29 11:37:38;;;;;;;6.40;2.60;;;9.40;99.90;;;;;;5017905;28;20033;-39
2022/12/29 11:40:19;;;;;;;7.75;2.80;;;9.40;99.90;;;;;;4997619;28;20499;-39
2022/12/29 11:42:57;;;;;;;7.40;2.53;;;9.40;99.90;;;;;;4997694;28;20528;-39
2022/12/29 11:45:26;;;;;;;9.00;3.05;;;9.40;99.90;;;;;;5017863;28;20053;-39
2022/12/29 11:47:56;;;;;;;8.45;2.67;;;9.40;99.90;;;;;;4994019;28;20034;-38
2022/12/29 11:50:29;;;;;;;7.10;2.72;;;9.30;99.90;;;;;;4998060;28;20042;-38
2022/12/29 11:53:26;;;;;;;8.50;2.67;;;9.40;99.90;;;;;;5013846;28;20046;-38
2022/12/29 11:55:58;;;;;;;6.93;2.30;;;9.40;99.90;;;;;;4981122;28;20045;-38
2022/12/29 11:58:36;;;;;;;7.55;2.58;;;9.50;99.90;;;;;;5003206;28;20429;-38
2022/12/29 12:01:29;;;;;;;8.52;2.28;;;9.60;99.90;;;;;;5005655;28;20042;-38
2022/12/29 12:04:15;;;;;;;9.73;2.63;;;9.60;99.90;;;;;;4997105;28;20042;-38
2022/12/29 12:06:57;;;;;;;10.65;2.80;;;9.70;99.90;;;;;;5003618;28;20033;-38
2022/12/29 12:09:35;;;;;;;10.57;2.42;;;9.80;99.90;;;;;;4990351;28;20041;-38
2022/12/29 12:12:03;;;;;;;13.30;3.28;;;9.90;99.90;;;;;;5005486;28;20061;-38
2022/12/29 12:14:42;;;;;;;9.63;2.78;;;10.00;99.90;;;;;;5014690;28;20118;-38
2022/12/29 12:17:11;;;;;;;11.65;2.58;;;10.10;99.90;;;;;;5004365;28;20041;-39
2022/12/29 12:19:46;;;;;;;13.43;3.00;;;10.30;99.90;;;;;;4996485;28;20034;-39
2022/12/29 12:22:31;;;;;;;8.95;2.42;;;10.40;99.90;;;;;;5004202;28;20128;-39
2022/12/29 12:25:12;;;;;;;11.25;2.97;;;10.60;99.90;;;;;;5003045;28;20611;-39
2022/12/29 12:27:48;;;;;;;8.65;2.08;;;10.60;99.90;;;;;;5004227;28;20042;-39
2022/12/29 12:30:21;;;;;;;12.80;3.00;;;10.50;99.90;;;;;;4996437;28;20033;-39
2022/12/29 12:33:00;;;;;;;6.13;2.10;;;10.30;99.90;;;;;;4999126;28;20069;-39
2022/12/29 12:35:47;;;;;;;15.20;2.83;;;10.00;99.90;;;;;;4998880;28;20034;-38
2022/12/29 12:38:19;;;;;;;9.10;3.03;;;9.80;99.90;;;;;;4998133;28;20038;-39
2022/12/29 12:41:20;;;;;;;8.35;2.58;;;9.60;99.90;;;;;;5023118;28;20060;-38
2022/12/29 12:44:04;;;;;;;7.75;1.80;;;9.50;99.90;;;;;;4998995;28;20038;-38
2022/12/29 12:46:59;;;;;;;6.80;2.15;;;9.50;99.90;;;;;;5014892;28;20038;-38
2022/12/29 12:49:54;;;;;;;8.18;1.67;;;9.50;99.90;;;;;;5022235;28;20060;-38
2022/12/29 12:52:23;;;;;;;;;;;9.40;99.90;;;;;;4990010;28;20124;-38
2022/12/29 12:54:58;;;;;;;7.38;2.55;;;9.30;99.90;;;;;;5008178;28;20378;-38
2022/12/29 12:57:43;;;;;;;15.02;3.33;;;9.40;99.90;;;;;;4999924;28;20033;-38
2022/12/29 13:00:18;;;;;;;13.45;3.80;;;9.50;99.90;;;;;;4999456;28;20045;-38
2022/12/29 13:03:12;;;;;;;11.13;3.05;;;9.60;99.90;;;;;;5001499;28;20033;-38
2022/12/29 13:06:05;;;;;;;14.60;3.53;;;9.70;99.90;;;;;;5019876;28;20038;-38
2022/12/29 13:09:01;;;;;;;11.17;3.47;;;9.70;99.90;;;;;;4985215;28;20133;-38
2022/12/29 13:11:42;;;;;;;13.48;3.58;;;9.70;99.90;;;;;;4999974;28;20042;-37
2022/12/29 13:18:07;;;;;;;11.13;3.25;;;9.70;99.90;;;;;;5013470;28;20125;-38
2022/12/29 13:20:43;;;;;;;9.13;3.20;;;9.80;99.90;;;;;;5000275;28;20042;-38
2022/12/29 13:23:27;;;;;;;14.25;2.92;;;9.70;99.90;;;;;;4999813;28;20040;-38
2022/12/29 13:25:59;;;;;;;13.18;3.53;;;9.70;99.90;;;;;;5000981;28;20038;-38
2022/12/29 13:28:42;;;;;;;9.25;3.10;;;9.70;99.90;;;;;;5022584;28;20112;-38
2022/12/29 13:31:32;;;;;;;12.15;2.83;;;9.70;99.90;;;;;;5012189;28;20054;-38
2022/12/29 13:33:58;;;;;;;11.00;2.72;;;9.70;99.90;;;;;;5013757;28;20486;-38
2022/12/29 13:36:44;;;;;;;12.05;2.97;;;9.80;99.90;;;;;;5020477;28;20070;-38
2022/12/29 13:39:41;;;;;;;10.07;2.30;;;9.80;99.90;;;;;;4999506;28;20033;-38
2022/12/29 13:42:16;;;;;;;9.70;2.50;;;9.90;99.90;;;;;;5011302;28;20050;-38
2022/12/29 13:45:02;;;;;;;10.05;2.67;;;9.90;99.90;;;;;;4998525;28;20139;-38
2022/12/29 13:47:36;;;;;;;10.70;2.53;;;9.80;99.90;;;;;;5018816;28;20070;-38
2022/12/29 13:50:24;;;;;;;14.43;2.78;;;9.70;99.90;;;;;;5007588;28;20053;-38
2022/12/29 13:53:14;;;;;;;12.65;2.75;;;9.60;99.90;;;;;;5001900;28;20045;-38
2022/12/29 13:56:15;;;;;;;10.13;3.03;;;9.60;99.90;;;;;;5012296;28;20491;-39
2022/12/29 13:59:06;;;;;;;13.60;3.40;;;9.50;99.90;;;;;;4998043;28;20025;-37
2022/12/29 14:02:03;;;;;;;11.65;2.97;;;9.40;99.90;;;;;;5020617;28;20077;-37
2022/12/29 14:04:34;;;;;;;11.73;3.42;;;9.40;99.90;;;;;;5012858;28;20475;-37
2022/12/29 14:07:04;;;;;;;11.13;3.03;;;9.40;99.90;;;;;;5011441;28;20558;-37
2022/12/29 14:09:47;;;;;;;12.93;3.25;;;9.30;99.90;;;;;;5016006;28;20117;-37
2022/12/29 14:12:20;;;;;;;6.38;2.53;;;9.30;99.90;;;;;;5013222;28;20421;-37
2022/12/29 14:14:47;;;;;;;12.30;3.45;;;9.30;99.90;;;;;;5000091;28;20037;-37
2022/12/29 14:17:20;;;;;;;15.90;3.33;;;9.20;99.90;;;;;;5006780;28;20034;-37
2022/12/29 14:19:58;;;;;;;11.55;3.58;;;9.20;99.90;;;;;;4998991;28;20508;-37
2022/12/29 14:22:26;;;;;;;10.45;3.10;;;9.20;99.90;;;;;;5014095;28;20052;-37
2022/12/29 14:24:52;;;;;;;11.63;3.17;;;9.20;99.90;;;;;;5002121;28;20038;-37